createdAt,value
2023-11-07T00:01:23.677Z,64.53
2023-11-07T00:03:50.477Z,64.04
2023-11-07T00:06:17.242Z,63.94
2023-11-07T00:08:43.921Z,63.96
2023-11-07T00:11:10.623Z,64.26
2023-11-07T00:13:37.284Z,63.49
2023-11-07T00:16:04.219Z,64.11
2023-11-07T00:18:30.967Z,65.18
2023-11-07T00:20:57.892Z,65.05
2023-11-07T00:23:24.590Z,65.02
2023-11-07T00:25:55.220Z,65.47
2023-11-07T00:28:21.861Z,65.67
2023-11-07T00:30:48.515Z,65.74
2023-11-07T00:33:15.407Z,64.49
2023-11-07T00:35:42.149Z,64.73
2023-11-07T00:38:08.804Z,64.99
2023-11-07T00:40:35.476Z,65.50
2023-11-07T00:43:02.553Z,64.86
2023-11-07T00:45:29.314Z,64.59
2023-11-07T00:47:56.068Z,64.52
2023-11-07T00:50:22.773Z,64.73
2023-11-07T00:52:50.719Z,64.00
2023-11-07T00:55:17.397Z,65.25
2023-11-07T00:57:44.036Z,66.11
2023-11-07T01:00:11.400Z,66.48
2023-11-07T01:02:38.197Z,68.85
2023-11-07T01:05:05.274Z,70.38
2023-11-07T01:07:31.983Z,71.35
2023-11-07T01:09:58.639Z,71.52
2023-11-07T01:12:25.279Z,71.70
2023-11-07T01:14:52.122Z,71.61
2023-11-07T01:17:18.820Z,70.44
2023-11-07T01:19:45.647Z,70.16
2023-11-07T01:22:12.306Z,70.96
2023-11-07T01:24:38.979Z,70.29
2023-11-07T01:27:05.702Z,70.42
2023-11-07T01:29:32.398Z,70.52
2023-11-07T01:31:59.046Z,70.49
2023-11-07T01:34:25.728Z,71.70
2023-11-07T01:36:52.461Z,70.46
2023-11-07T01:39:19.161Z,69.66
2023-11-07T01:41:45.896Z,69.94
2023-11-07T01:44:12.602Z,70.11
2023-11-07T01:46:39.304Z,70.49
2023-11-07T01:49:06.053Z,70.50
2023-11-07T01:51:32.856Z,70.26
2023-11-07T01:54:00.879Z,70.88
2023-11-07T01:56:27.846Z,70.92
2023-11-07T01:58:57.072Z,70.35
2023-11-07T02:01:25.803Z,69.54
2023-11-07T02:03:52.863Z,69.80
2023-11-07T02:06:19.731Z,70.89
2023-11-07T02:08:46.554Z,72.47
2023-11-07T02:11:13.250Z,72.61
2023-11-07T02:13:40.004Z,72.54
2023-11-07T02:16:07.230Z,72.94
2023-11-07T02:18:34.148Z,72.81
2023-11-07T02:21:00.919Z,72.51
2023-11-07T02:23:32.128Z,72.89
2023-11-07T02:25:59.461Z,72.84
2023-11-07T02:28:26.172Z,72.49
2023-11-07T02:30:53.289Z,72.70
2023-11-07T02:33:20.149Z,72.61
2023-11-07T02:35:47.624Z,72.38
2023-11-07T02:38:14.382Z,72.32
2023-11-07T02:40:41.049Z,71.33
2023-11-07T02:43:07.746Z,71.70
2023-11-07T02:45:36.575Z,70.30
2023-11-07T02:48:04.038Z,70.57
2023-11-07T02:50:31.044Z,71.97
2023-11-07T02:52:57.698Z,70.91
2023-11-07T02:55:25.409Z,70.89
2023-11-07T02:57:52.067Z,70.97
2023-11-07T03:00:19.076Z,69.49
2023-11-07T03:02:45.809Z,69.47
2023-11-07T03:05:12.653Z,68.40
2023-11-07T03:07:39.295Z,68.15
2023-11-07T03:10:06.274Z,67.35
2023-11-07T03:12:32.955Z,67.33
2023-11-07T03:14:59.644Z,65.80
2023-11-07T03:17:26.557Z,65.24
2023-11-07T03:19:53.290Z,65.21
2023-11-07T03:22:23.676Z,64.28
2023-11-07T03:24:50.444Z,63.71
2023-11-07T03:27:17.148Z,64.37
2023-11-07T03:29:44.080Z,64.77
2023-11-07T03:32:10.878Z,64.30
2023-11-07T03:34:37.541Z,63.80
2023-11-07T03:37:04.315Z,63.05
2023-11-07T03:39:32.125Z,62.85
2023-11-07T03:41:59.798Z,62.75
2023-11-07T03:44:26.593Z,62.11
2023-11-07T03:46:53.266Z,62.44
2023-11-07T03:49:20.033Z,62.32
2023-11-07T03:51:46.694Z,62.27
2023-11-07T03:54:13.361Z,62.02
2023-11-07T03:56:40.152Z,61.72
2023-11-07T03:59:06.796Z,61.41
2023-11-07T04:01:37.397Z,61.55
2023-11-07T04:04:04.893Z,62.14
2023-11-07T04:06:32.094Z,61.55
2023-11-07T04:08:59.740Z,61.77
2023-11-07T04:11:27.278Z,61.94
2023-11-07T04:14:16.027Z,61.07
2023-11-07T04:16:42.678Z,61.02
2023-11-07T04:19:09.520Z,61.10
2023-11-07T04:21:36.228Z,61.17
2023-11-07T04:24:02.931Z,60.88
2023-11-07T04:26:29.636Z,61.12
2023-11-07T04:28:56.296Z,61.32
2023-11-07T04:31:22.945Z,61.87
2023-11-07T04:33:50.253Z,62.38
2023-11-07T04:36:17.017Z,60.65
2023-11-07T04:38:44.428Z,60.70
2023-11-07T04:41:11.283Z,59.79
2023-11-07T04:43:37.928Z,60.20
2023-11-07T04:46:04.840Z,60.20
2023-11-07T04:48:31.841Z,60.61
2023-11-07T04:51:02.560Z,61.13
2023-11-07T04:53:29.343Z,60.96
2023-11-07T04:55:56.238Z,61.65
2023-11-07T04:58:24.783Z,62.50
2023-11-07T05:00:51.490Z,62.04
2023-11-07T05:03:20.954Z,61.00
2023-11-07T05:05:49.422Z,60.77
2023-11-07T05:08:16.074Z,60.58
2023-11-07T05:10:42.761Z,60.97
2023-11-07T05:13:09.440Z,61.02
2023-11-07T05:15:36.101Z,60.18
2023-11-07T05:18:02.901Z,60.90
2023-11-07T05:20:30.669Z,59.28
2023-11-07T05:22:57.329Z,59.23
2023-11-07T05:25:24.034Z,59.86
2023-11-07T05:27:50.688Z,59.47
2023-11-07T05:30:17.418Z,59.00
2023-11-07T05:32:44.185Z,58.87
2023-11-07T05:35:10.888Z,58.62
2023-11-07T05:37:37.552Z,59.49
2023-11-07T05:40:04.570Z,59.20
2023-11-07T05:42:31.269Z,59.68
2023-11-07T05:44:59.295Z,59.90
2023-11-07T05:47:26.189Z,60.71
2023-11-07T05:49:52.858Z,60.61
2023-11-07T05:52:19.519Z,60.35
2023-11-07T05:54:46.197Z,60.35
2023-11-07T05:57:13.073Z,59.67
2023-11-07T05:59:39.762Z,59.30
2023-11-07T06:02:06.517Z,60.15
2023-11-07T06:04:36.496Z,60.63
2023-11-07T06:07:04.076Z,59.86
2023-11-07T06:09:30.820Z,60.03
2023-11-07T06:11:57.897Z,59.87
2023-11-07T06:14:25.278Z,59.56
2023-11-07T06:16:52.445Z,58.60
2023-11-07T06:19:19.468Z,59.47
2023-11-07T06:21:46.248Z,59.55
2023-11-07T06:24:12.955Z,58.89
2023-11-07T06:26:39.694Z,60.42
2023-11-07T06:29:06.455Z,60.15
2023-11-07T06:31:33.171Z,60.35
2023-11-07T06:34:00.213Z,59.59
2023-11-07T06:36:27.098Z,59.63
2023-11-07T06:38:53.844Z,59.56
2023-11-07T06:41:20.607Z,58.63
2023-11-07T06:43:51.504Z,58.75
2023-11-07T06:46:21.494Z,58.56
2023-11-07T06:48:48.422Z,59.02
2023-11-07T06:51:16.166Z,58.70
2023-11-07T06:53:42.912Z,58.80
2023-11-07T06:56:09.758Z,59.17
2023-11-07T06:58:36.839Z,60.10
2023-11-07T07:01:04.320Z,60.13
2023-11-07T07:03:31.188Z,59.63
2023-11-07T07:05:58.018Z,59.72
2023-11-07T07:08:24.793Z,59.65
2023-11-07T07:10:53.118Z,59.18
2023-11-07T07:13:19.962Z,59.78
2023-11-07T07:15:47.582Z,59.01
2023-11-07T07:18:14.783Z,59.25
2023-11-07T07:20:41.565Z,59.12
2023-11-07T07:23:08.620Z,58.92
2023-11-07T07:25:36.123Z,58.97
2023-11-07T07:28:04.726Z,59.13
2023-11-07T07:30:31.706Z,58.75
2023-11-07T07:32:58.558Z,59.60
2023-11-07T07:35:25.515Z,59.23
2023-11-07T07:37:52.224Z,58.66
2023-11-07T07:40:20.601Z,58.96
2023-11-07T07:42:47.367Z,58.76
2023-11-07T07:45:14.261Z,58.07
2023-11-07T07:47:41.093Z,59.23
2023-11-07T07:50:09.224Z,60.46
2023-11-07T07:52:35.898Z,61.01
2023-11-07T07:55:10.460Z,61.20
2023-11-07T07:57:43.266Z,63.52
2023-11-07T08:00:10.404Z,63.90
2023-11-07T08:02:37.162Z,63.75
2023-11-07T08:05:03.997Z,63.86
2023-11-07T08:07:30.753Z,63.88
2023-11-07T08:09:57.427Z,63.33
2023-11-07T08:12:24.081Z,63.50
2023-11-07T08:14:50.764Z,62.56
2023-11-07T08:17:17.928Z,63.54
2023-11-07T08:19:44.665Z,64.83
2023-11-07T08:22:11.394Z,64.09
2023-11-07T08:24:38.119Z,63.24
2023-11-07T08:27:04.924Z,63.62
2023-11-07T08:29:31.691Z,62.31
2023-11-07T08:31:58.472Z,61.49
2023-11-07T08:34:25.412Z,61.88
2023-11-07T08:37:01.878Z,61.82
2023-11-07T08:39:35.474Z,60.78
2023-11-07T08:42:02.407Z,60.92
2023-11-07T08:44:29.473Z,60.52
2023-11-07T08:46:56.314Z,59.76
2023-11-07T08:49:23.147Z,60.96
2023-11-07T08:51:49.970Z,59.76
2023-11-07T08:54:16.781Z,60.83
2023-11-07T08:56:43.580Z,60.85
2023-11-07T08:59:10.319Z,60.61
2023-11-07T09:01:37.099Z,60.40
2023-11-07T09:04:03.972Z,60.56
2023-11-07T09:06:31.027Z,60.21
2023-11-07T09:08:57.785Z,59.90
2023-11-07T09:11:24.530Z,60.02
2023-11-07T09:13:51.305Z,59.52
2023-11-07T09:16:18.113Z,60.48
2023-11-07T09:18:45.008Z,60.99
2023-11-07T09:21:11.873Z,60.19
2023-11-07T09:23:38.682Z,60.59
2023-11-07T09:26:05.538Z,60.10
2023-11-07T09:28:32.298Z,59.44
2023-11-07T09:30:59.290Z,59.27
2023-11-07T09:33:26.155Z,59.98
2023-11-07T09:35:52.939Z,61.08
2023-11-07T09:38:20.044Z,60.09
2023-11-07T09:40:46.856Z,59.75
2023-11-07T09:43:13.972Z,60.02
2023-11-07T09:45:43.190Z,60.07
2023-11-07T09:48:10.296Z,58.96
2023-11-07T09:50:37.298Z,58.28
2023-11-07T09:53:05.090Z,58.40
2023-11-07T09:55:33.395Z,59.14
2023-11-07T09:58:12.944Z,59.54
2023-11-07T10:00:44.319Z,59.98
2023-11-07T10:03:11.670Z,61.90
2023-11-07T10:05:40.106Z,63.68
2023-11-07T10:08:06.822Z,64.07
2023-11-07T10:10:33.903Z,65.28
2023-11-07T10:13:09.289Z,64.73
2023-11-07T10:15:36.453Z,65.79
2023-11-07T10:18:06.590Z,64.74
2023-11-07T10:20:34.607Z,62.85
2023-11-07T10:23:02.082Z,61.89
2023-11-07T10:25:37.011Z,61.64
2023-11-07T10:28:05.349Z,61.92
2023-11-07T10:30:42.853Z,61.23
2023-11-07T10:33:28.300Z,61.43
2023-11-07T10:35:58.078Z,60.05
2023-11-07T10:38:25.524Z,60.13
2023-11-07T10:40:52.974Z,61.64
2023-11-07T10:43:39.706Z,62.19
2023-11-07T10:46:12.832Z,62.14
2023-11-07T10:48:42.426Z,61.95
2023-11-07T10:51:12.118Z,62.42
2023-11-07T10:53:40.804Z,63.66
2023-11-07T10:56:18.832Z,64.27
2023-11-07T10:59:00.579Z,65.52
2023-11-07T11:01:31.297Z,66.31
2023-11-07T11:04:03.068Z,67.07
2023-11-07T11:06:33.064Z,65.08
2023-11-07T11:09:05.719Z,66.99
2023-11-07T11:11:34.702Z,66.80
2023-11-07T11:14:03.989Z,67.10
2023-11-07T11:16:32.743Z,67.34
2023-11-07T11:19:23.024Z,65.31
2023-11-07T11:21:57.866Z,64.49
2023-11-07T11:25:02.248Z,64.08
2023-11-07T11:27:36.962Z,62.33
2023-11-07T11:30:04.093Z,64.85
2023-11-07T11:32:31.863Z,64.51
2023-11-07T11:35:13.890Z,65.51
2023-11-07T11:38:09.623Z,66.21
2023-11-07T11:40:58.442Z,67.08
2023-11-07T11:43:27.419Z,66.40
2023-11-07T11:45:56.245Z,64.65
2023-11-07T11:48:47.998Z,64.33
2023-11-07T11:51:34.125Z,64.56
2023-11-07T11:54:01.319Z,64.69
2023-11-07T11:56:28.629Z,64.80
2023-11-07T11:59:06.994Z,64.05
2023-11-07T12:01:53.995Z,64.04
2023-11-07T12:04:26.776Z,62.97
2023-11-07T12:07:09.868Z,63.39
2023-11-07T12:09:49.065Z,64.88
2023-11-07T12:12:16.555Z,64.04
2023-11-07T12:15:00.965Z,63.88
2023-11-07T12:17:43.180Z,63.45
2023-11-07T12:20:13.315Z,63.65
2023-11-07T12:22:43.934Z,63.79
2023-11-07T12:25:14.299Z,62.55
2023-11-07T12:27:42.445Z,63.32
2023-11-07T12:30:16.775Z,62.44
2023-11-07T12:32:45.335Z,62.17
2023-11-07T12:35:22.305Z,61.85
2023-11-07T12:37:51.339Z,61.19
2023-11-07T12:40:19.165Z,61.06
2023-11-07T12:42:53.947Z,61.76
2023-11-07T12:45:29.262Z,61.54
2023-11-07T12:47:58.271Z,63.46
2023-11-07T12:50:28.870Z,62.14
2023-11-07T12:52:56.800Z,64.39
2023-11-07T12:55:23.662Z,62.78
2023-11-07T12:57:51.264Z,63.78
2023-11-07T13:00:18.310Z,64.00
2023-11-07T13:02:45.196Z,63.56
2023-11-07T13:05:16.694Z,63.74
2023-11-07T13:07:44.149Z,64.22
2023-11-07T13:10:15.717Z,63.06
2023-11-07T13:12:43.049Z,63.11
2023-11-07T13:15:14.138Z,63.24
2023-11-07T13:17:41.900Z,62.66
2023-11-07T13:20:10.135Z,64.29
2023-11-07T13:22:36.837Z,65.26
2023-11-07T13:25:04.053Z,65.89
2023-11-07T13:27:30.809Z,66.29
2023-11-07T13:29:57.563Z,66.23
2023-11-07T13:32:24.365Z,65.45
2023-11-07T13:34:51.220Z,65.08
2023-11-07T13:37:18.466Z,64.38
2023-11-07T13:39:45.553Z,64.20
2023-11-07T13:42:12.299Z,62.74
2023-11-07T13:44:39.127Z,62.93
2023-11-07T13:47:05.948Z,62.38
2023-11-07T13:49:32.821Z,61.28
2023-11-07T13:51:59.493Z,63.84
2023-11-07T13:54:26.203Z,62.88
2023-11-07T13:56:52.889Z,62.93
2023-11-07T13:59:19.589Z,63.65
2023-11-07T14:01:46.347Z,64.83
2023-11-07T14:04:13.293Z,63.81
2023-11-07T14:06:40.392Z,62.77
2023-11-07T14:09:07.221Z,62.89
2023-11-07T14:11:34.026Z,62.11
2023-11-07T14:14:00.786Z,61.92
2023-11-07T14:16:27.604Z,61.86
2023-11-07T14:18:54.792Z,62.04
2023-11-07T14:21:21.665Z,61.78
2023-11-07T14:23:49.136Z,63.30
2023-11-07T14:26:15.904Z,62.11
2023-11-07T14:28:50.858Z,61.50
2023-11-07T14:31:25.883Z,62.43
2023-11-07T14:33:52.720Z,61.59
2023-11-07T14:36:19.656Z,62.33
2023-11-07T14:38:46.882Z,61.06
2023-11-07T14:41:13.524Z,61.87
2023-11-07T14:43:40.176Z,62.98
2023-11-07T14:46:06.950Z,62.48
2023-11-07T14:48:34.716Z,62.62
2023-11-07T14:51:01.560Z,63.56
2023-11-07T14:53:28.356Z,63.55
2023-11-07T14:55:55.365Z,63.80
2023-11-07T14:58:24.404Z,63.29
2023-11-07T15:00:52.155Z,62.82
2023-11-07T15:03:19.053Z,63.42
2023-11-07T15:05:45.960Z,63.39
2023-11-07T15:08:12.684Z,63.76
2023-11-07T15:10:39.531Z,63.62
2023-11-07T15:13:07.114Z,64.02
2023-11-07T15:15:34.642Z,64.32
2023-11-07T15:18:02.852Z,64.60
2023-11-07T15:20:29.896Z,64.25
2023-11-07T15:22:56.969Z,64.18
2023-11-07T15:25:23.783Z,64.42
2023-11-07T15:27:50.440Z,63.33
2023-11-07T15:30:17.215Z,62.35
2023-11-07T15:32:45.706Z,62.29
2023-11-07T15:35:12.543Z,64.25
2023-11-07T15:37:39.207Z,67.24
2023-11-07T15:40:06.234Z,68.72
2023-11-07T15:42:32.913Z,70.62
2023-11-07T15:44:59.599Z,70.98
2023-11-07T15:47:26.303Z,71.67
2023-11-07T15:49:53.114Z,71.44
2023-11-07T15:52:19.757Z,69.30
2023-11-07T15:54:46.568Z,69.06
2023-11-07T15:57:13.923Z,69.48
2023-11-07T15:59:40.625Z,67.09
2023-11-07T16:02:07.266Z,66.04
2023-11-07T16:04:34.071Z,67.59
2023-11-07T16:07:00.819Z,67.43
2023-11-07T16:09:27.593Z,67.01
2023-11-07T16:11:54.329Z,65.95
2023-11-07T16:14:21.079Z,65.18
2023-11-07T16:16:47.899Z,64.36
2023-11-07T16:19:14.669Z,64.72
2023-11-07T16:21:42.733Z,65.71
2023-11-07T16:24:09.783Z,65.67
2023-11-07T16:26:40.181Z,66.25
2023-11-07T16:29:06.926Z,66.51
2023-11-07T16:31:33.666Z,68.21
2023-11-07T16:34:04.605Z,68.89
2023-11-07T16:36:31.370Z,69.94
2023-11-07T16:38:58.268Z,67.84
2023-11-07T16:41:25.031Z,68.42
2023-11-07T16:43:52.058Z,66.24
2023-11-07T16:46:19.093Z,65.27
2023-11-07T16:48:45.923Z,64.60
2023-11-07T16:51:12.808Z,64.05
2023-11-07T16:53:39.621Z,63.30
2023-11-07T16:56:06.517Z,62.03
2023-11-07T16:58:33.227Z,63.01
2023-11-07T17:00:59.866Z,62.51
2023-11-07T17:03:26.812Z,62.66
2023-11-07T17:05:53.691Z,62.53
2023-11-07T17:08:20.372Z,62.74
2023-11-07T17:10:47.030Z,63.08
2023-11-07T17:13:13.754Z,64.95
2023-11-07T17:15:41.770Z,63.82
2023-11-07T17:18:08.579Z,63.50
2023-11-07T17:20:35.261Z,63.63
2023-11-07T17:23:02.301Z,62.68
2023-11-07T17:25:29.004Z,62.22
2023-11-07T17:27:56.034Z,61.92
2023-11-07T17:30:22.882Z,61.80
2023-11-07T17:32:50.133Z,61.87
2023-11-07T17:35:17.092Z,62.44
2023-11-07T17:37:43.983Z,63.21
2023-11-07T17:40:11.024Z,62.84
2023-11-07T17:42:37.891Z,62.19
2023-11-07T17:45:05.844Z,63.78
2023-11-07T17:47:33.080Z,63.86
2023-11-07T17:50:00.975Z,64.01
2023-11-07T17:52:27.703Z,64.67
2023-11-07T17:54:54.434Z,65.75
2023-11-07T17:57:23.902Z,65.06
2023-11-07T17:59:50.973Z,66.43
2023-11-07T18:02:17.753Z,66.52
2023-11-07T18:04:44.465Z,66.76
2023-11-07T18:07:11.214Z,67.55
2023-11-07T18:09:38.426Z,67.66
2023-11-07T18:12:05.376Z,68.50
2023-11-07T18:14:32.124Z,67.92
2023-11-07T18:16:58.906Z,67.50
2023-11-07T18:19:26.130Z,68.93
2023-11-07T18:21:53.082Z,69.47
2023-11-07T18:24:19.790Z,68.74
2023-11-07T18:26:46.550Z,68.32
2023-11-07T18:29:13.662Z,69.43
2023-11-07T18:31:40.405Z,69.27
2023-11-07T18:34:16.641Z,69.29
2023-11-07T18:37:03.689Z,69.40
2023-11-07T18:39:31.773Z,69.49
2023-11-07T18:41:58.948Z,69.47
2023-11-07T18:44:25.929Z,69.91
2023-11-07T18:46:52.674Z,70.13
2023-11-07T18:49:19.386Z,70.82
2023-11-07T18:51:47.588Z,70.76
2023-11-07T18:54:14.617Z,69.26
2023-11-07T18:56:48.065Z,68.53
2023-11-07T18:59:24.202Z,69.31
2023-11-07T19:01:58.646Z,69.12
2023-11-07T19:04:25.410Z,69.02
2023-11-07T19:06:52.290Z,69.37
2023-11-07T19:09:19.094Z,70.41
2023-11-07T19:11:45.859Z,71.92
2023-11-07T19:14:12.551Z,71.15
2023-11-07T19:16:39.198Z,71.44
2023-11-07T19:19:06.132Z,72.22
2023-11-07T19:21:32.930Z,71.93
2023-11-07T19:23:59.700Z,70.46
2023-11-07T19:26:27.042Z,70.90
2023-11-07T19:28:53.686Z,69.92
2023-11-07T19:31:20.350Z,68.85
2023-11-07T19:33:47.119Z,67.88
2023-11-07T19:36:13.960Z,69.17
2023-11-07T19:38:40.818Z,68.41
2023-11-07T19:41:07.514Z,67.54
2023-11-07T19:43:40.412Z,67.34
2023-11-07T19:46:09.640Z,68.11
2023-11-07T19:48:37.080Z,67.96
2023-11-07T19:51:04.338Z,67.18
2023-11-07T19:53:31.037Z,66.89
2023-11-07T19:55:57.692Z,66.82
2023-11-07T19:58:24.443Z,67.04
2023-11-07T20:00:51.089Z,66.85
2023-11-07T20:03:17.928Z,66.62
2023-11-07T20:05:44.683Z,66.88
2023-11-07T20:08:11.689Z,67.28
2023-11-07T20:10:38.351Z,67.53
2023-11-07T20:13:05.006Z,67.84
2023-11-07T20:15:31.720Z,68.21
2023-11-07T20:17:58.830Z,69.72
2023-11-07T20:20:25.552Z,69.94
2023-11-07T20:22:52.206Z,69.83
2023-11-07T20:25:18.883Z,69.67
2023-11-07T20:27:45.683Z,69.74
2023-11-07T20:30:12.490Z,69.07
2023-11-07T20:32:39.255Z,68.87
2023-11-07T20:35:06.519Z,69.88
2023-11-07T20:37:33.383Z,70.43
2023-11-07T20:40:00.135Z,70.80
2023-11-07T20:42:27.011Z,69.98
2023-11-07T20:45:00.882Z,70.51
2023-11-07T20:47:35.184Z,71.21
2023-11-07T20:50:02.082Z,71.39
2023-11-07T20:52:28.735Z,71.57
2023-11-07T20:54:55.790Z,70.97
2023-11-07T20:57:22.553Z,71.58
2023-11-07T20:59:49.619Z,70.70
2023-11-07T21:02:16.297Z,72.58
2023-11-07T21:04:42.987Z,72.61
2023-11-07T21:07:09.718Z,72.35
2023-11-07T21:09:36.455Z,73.80
2023-11-07T21:12:03.374Z,72.97
2023-11-07T21:14:30.048Z,73.04
2023-11-07T21:16:56.780Z,73.20
2023-11-07T21:19:25.572Z,73.12
2023-11-07T21:21:53.408Z,71.30
2023-11-07T21:24:20.213Z,71.60
2023-11-07T21:26:46.872Z,72.45
2023-11-07T21:29:13.538Z,72.81
2023-11-07T21:31:40.226Z,73.21
2023-11-07T21:34:06.940Z,72.76
2023-11-07T21:36:33.768Z,73.56
2023-11-07T21:39:00.448Z,72.00
2023-11-07T21:41:27.150Z,72.21
2023-11-07T21:43:53.795Z,72.35
2023-11-07T21:46:20.437Z,72.70
2023-11-07T21:48:47.458Z,72.33
2023-11-07T21:51:14.247Z,73.38
2023-11-07T21:53:40.950Z,73.16
2023-11-07T21:56:07.661Z,73.38
2023-11-07T21:58:34.307Z,73.04
2023-11-07T22:01:01.062Z,72.72
2023-11-07T22:03:27.788Z,72.64
2023-11-07T22:05:54.584Z,71.77
2023-11-07T22:08:21.297Z,71.39
2023-11-07T22:10:48.073Z,71.33
2023-11-07T22:13:14.738Z,70.36
2023-11-07T22:15:41.401Z,70.45
2023-11-07T22:18:08.448Z,69.24
2023-11-07T22:20:37.084Z,69.50
2023-11-07T22:23:03.889Z,70.02
2023-11-07T22:25:30.814Z,69.75
2023-11-07T22:27:58.381Z,69.74
2023-11-07T22:30:26.216Z,69.98
2023-11-07T22:32:53.124Z,69.72
2023-11-07T22:35:20.000Z,69.56
2023-11-07T22:37:46.751Z,68.87
2023-11-07T22:40:13.553Z,68.70
2023-11-07T22:42:40.529Z,69.44
2023-11-07T22:45:08.633Z,69.65
2023-11-07T22:47:35.406Z,70.28
2023-11-07T22:50:02.183Z,69.64
2023-11-07T22:52:28.836Z,69.32
2023-11-07T22:54:55.615Z,71.45
2023-11-07T22:57:22.376Z,71.47
2023-11-07T22:59:49.153Z,72.19
2023-11-07T23:02:15.821Z,71.38
2023-11-07T23:04:42.509Z,70.44
2023-11-07T23:07:09.573Z,69.51
2023-11-07T23:09:36.276Z,68.97
2023-11-07T23:12:03.574Z,69.72
2023-11-07T23:14:30.672Z,68.96
2023-11-07T23:16:57.330Z,68.83
2023-11-07T23:19:23.977Z,68.31
2023-11-07T23:21:50.625Z,68.29
2023-11-07T23:24:17.340Z,67.93
2023-11-07T23:26:48.225Z,69.42
2023-11-07T23:29:15.688Z,68.42
2023-11-07T23:31:42.387Z,68.54
2023-11-07T23:34:09.196Z,67.42
2023-11-07T23:36:35.943Z,67.32
2023-11-07T23:39:02.634Z,67.67
2023-11-07T23:41:29.465Z,67.38
2023-11-07T23:43:56.183Z,67.23
2023-11-07T23:46:22.922Z,68.26
2023-11-07T23:48:49.667Z,69.45
2023-11-07T23:51:16.496Z,69.44
2023-11-07T23:53:43.569Z,68.96
2023-11-07T23:56:10.621Z,69.61
2023-11-07T23:58:37.333Z,69.84
